createdAt,value
2019-06-07T00:02:18.851Z,13.90
2019-06-07T00:04:48.377Z,13.90
2019-06-07T00:07:21.883Z,13.90
2019-06-07T00:09:49.730Z,13.80
2019-06-07T00:12:21.504Z,13.80
2019-06-07T00:14:50.218Z,13.70
2019-06-07T00:17:20.221Z,13.70
2019-06-07T00:19:50.259Z,13.70
2019-06-07T00:22:32.450Z,13.60
2019-06-07T00:24:51.428Z,13.50
2019-06-07T00:27:22.593Z,13.60
2019-06-07T00:29:51.916Z,13.50
2019-06-07T00:32:22.293Z,13.50
2019-06-07T00:34:51.826Z,13.40
2019-06-07T00:37:25.257Z,13.40
2019-06-07T00:40:12.649Z,13.40
2019-06-07T00:42:24.487Z,13.40
2019-06-07T00:44:54.129Z,13.30
2019-06-07T00:47:25.539Z,13.30
2019-06-07T00:49:54.670Z,13.20
2019-06-07T00:53:11.610Z,13.20
2019-06-07T00:54:55.930Z,13.20
2019-06-07T00:57:25.338Z,13.20
2019-06-07T00:59:54.848Z,13.10
2019-06-07T01:02:28.233Z,13.10
2019-06-07T01:04:55.344Z,13.10
2019-06-07T01:07:24.736Z,13.00
2019-06-07T01:09:54.473Z,13.00
2019-06-07T01:12:26.646Z,13.00
2019-06-07T01:14:54.945Z,13.00
2019-06-07T01:17:41.548Z,12.90
2019-06-07T01:20:01.087Z,12.90
2019-06-07T01:22:30.461Z,12.90
2019-06-07T01:24:59.875Z,12.90
2019-06-07T01:27:29.271Z,12.90
2019-06-07T01:29:58.655Z,12.80
2019-06-07T01:32:31.836Z,12.80
2019-06-07T01:34:59.162Z,12.80
2019-06-07T01:37:30.309Z,12.80
2019-06-07T01:39:59.709Z,12.70
2019-06-07T01:42:30.963Z,12.70
2019-06-07T01:45:00.209Z,12.70
2019-06-07T01:47:32.201Z,12.70
2019-06-07T01:50:00.710Z,12.70
2019-06-07T01:52:30.086Z,12.70
2019-06-07T02:16:48.753Z,10.40
2019-06-07T02:19:19.405Z,10.70
2019-06-07T02:21:48.803Z,10.90
2019-06-07T02:24:24.790Z,11.20
2019-06-07T02:26:52.480Z,11.40
2019-06-07T02:29:22.918Z,11.50
2019-06-07T02:31:52.475Z,11.60
2019-06-07T02:34:24.113Z,11.80
2019-06-07T02:36:53.002Z,11.80
2019-06-07T02:39:25.252Z,11.90
2019-06-07T02:41:53.510Z,12.00
2019-06-07T02:44:24.063Z,12.10
2019-06-07T02:46:54.045Z,12.10
2019-06-07T02:49:25.191Z,12.20
2019-06-07T02:51:54.516Z,12.20
2019-06-07T02:54:24.493Z,12.20
2019-06-07T02:56:58.479Z,12.30
2019-06-07T02:59:46.857Z,12.30
2019-06-07T03:01:57.737Z,12.30
2019-06-07T03:04:32.014Z,12.30
2019-06-07T03:07:02.146Z,12.40
2019-06-07T03:09:35.015Z,12.40
2019-06-07T03:12:05.190Z,12.40
2019-06-07T03:14:39.049Z,12.40
2019-06-07T03:17:27.655Z,12.40
2019-06-07T03:20:02.370Z,12.40
2019-06-07T03:22:39.830Z,12.40
2019-06-07T03:25:07.270Z,12.40
2019-06-07T03:27:48.299Z,12.40
2019-06-07T03:30:36.371Z,12.40
2019-06-07T03:32:47.297Z,12.40
2019-06-07T03:35:11.330Z,12.40
2019-06-07T03:37:42.991Z,12.40
2019-06-07T03:40:12.243Z,12.50
2019-06-07T03:42:41.610Z,12.40
2019-06-07T03:45:11.149Z,12.40
2019-06-07T03:47:43.636Z,12.50
2019-06-07T03:50:13.227Z,12.50
2019-06-07T03:52:43.093Z,12.50
2019-06-07T03:55:12.465Z,12.50
2019-06-07T04:00:13.995Z,12.50
2019-06-07T04:02:43.424Z,12.50
2019-06-07T04:05:12.966Z,12.50
2019-06-07T04:07:44.298Z,12.50
2019-06-07T04:10:13.861Z,12.60
2019-06-07T04:12:44.413Z,12.60
2019-06-07T04:15:14.633Z,12.60
2019-06-07T04:18:00.938Z,12.60
2019-06-07T04:20:15.523Z,12.60
2019-06-07T04:22:46.043Z,12.60
2019-06-07T04:25:16.223Z,12.70
2019-06-07T04:27:45.597Z,12.70
2019-06-07T04:30:22.753Z,12.70
2019-06-07T04:32:52.148Z,12.70
2019-06-07T04:35:21.609Z,12.80
2019-06-07T04:37:51.151Z,12.80
2019-06-07T04:40:20.529Z,12.90
2019-06-07T04:42:51.104Z,13.00
2019-06-07T04:45:33.853Z,13.10
2019-06-07T04:47:55.924Z,13.30
2019-06-07T04:50:27.152Z,13.30
2019-06-07T04:52:56.530Z,13.40
2019-06-07T04:55:25.895Z,13.50
2019-06-07T04:57:55.575Z,13.50
2019-06-07T05:00:59.281Z,13.60
2019-06-07T05:03:08.970Z,13.60
2019-06-07T05:05:41.888Z,13.70
2019-06-07T05:08:26.925Z,13.70
2019-06-07T05:10:43.621Z,13.70
2019-06-07T05:13:11.752Z,13.80
2019-06-07T05:15:42.345Z,13.90
2019-06-07T05:18:11.905Z,13.90
2019-06-07T05:20:44.279Z,14.00
2019-06-07T05:23:59.324Z,14.00
2019-06-07T05:25:44.757Z,14.10
2019-06-07T05:28:14.318Z,14.20
2019-06-07T05:31:03.763Z,14.30
2019-06-07T05:33:15.005Z,14.50
2019-06-07T05:35:44.386Z,14.60
2019-06-07T05:38:13.761Z,14.70
2019-06-07T05:40:48.525Z,14.80
2019-06-07T05:43:26.012Z,14.90
2019-06-07T05:45:56.047Z,14.90
2019-06-07T05:48:26.858Z,15.00
2019-06-07T05:50:57.512Z,15.10
2019-06-07T05:53:27.204Z,15.20
2019-06-07T05:55:56.657Z,15.30
2019-06-07T05:58:26.035Z,15.40
2019-06-07T06:00:55.458Z,15.50
2019-06-07T06:03:24.839Z,15.50
2019-06-07T06:05:55.592Z,15.60
2019-06-07T06:08:26.164Z,15.70
2019-06-07T06:10:55.610Z,15.80
2019-06-07T06:13:24.986Z,15.80
2019-06-07T06:16:01.254Z,15.90
2019-06-07T06:18:25.469Z,16.00
2019-06-07T06:21:15.588Z,16.00
2019-06-07T06:23:26.018Z,16.10
2019-06-07T06:25:57.660Z,16.20
2019-06-07T06:28:27.600Z,16.30
2019-06-07T06:30:57.028Z,16.30
2019-06-07T06:33:34.574Z,16.40
2019-06-07T06:35:57.534Z,16.40
2019-06-07T06:38:26.941Z,16.50
2019-06-07T06:41:14.259Z,16.60
2019-06-07T06:43:27.438Z,16.60
2019-06-07T06:45:56.846Z,16.70
2019-06-07T06:48:26.224Z,16.80
2019-06-07T06:50:55.621Z,16.90
2019-06-07T06:53:25.038Z,16.90
2019-06-07T06:55:54.427Z,17.00
2019-06-07T06:58:23.802Z,17.10
2019-06-07T07:01:05.203Z,17.20
2019-06-07T07:03:56.563Z,17.30
2019-06-07T07:06:24.086Z,17.40
2019-06-07T07:08:28.754Z,17.50
2019-06-07T07:10:58.126Z,17.50
2019-06-07T07:13:27.507Z,17.60
2019-06-07T07:15:58.286Z,17.70
2019-06-07T07:18:27.998Z,17.80
2019-06-07T07:20:57.732Z,17.90
2019-06-07T07:23:27.265Z,18.00
2019-06-07T07:25:59.522Z,18.10
2019-06-07T07:28:29.382Z,18.20
2019-06-07T07:30:58.936Z,18.30
2019-06-07T07:34:19.799Z,18.40
2019-06-07T07:38:30.601Z,18.60
2019-06-07T07:41:14.687Z,18.60
2019-06-07T07:43:34.107Z,18.70
2019-06-07T07:46:20.026Z,18.80
2019-06-07T07:48:34.738Z,18.90
2019-06-07T07:51:04.222Z,19.00
2019-06-07T07:53:48.587Z,19.10
2019-06-07T07:56:05.160Z,19.20
2019-06-07T07:58:34.989Z,19.40
2019-06-07T08:01:10.638Z,19.40
2019-06-07T08:03:36.144Z,19.50
2019-06-07T08:06:05.644Z,19.50
2019-06-07T08:08:35.103Z,19.60
2019-06-07T08:11:04.635Z,19.70
2019-06-07T08:13:34.108Z,19.80
2019-06-07T08:16:09.052Z,19.90
2019-06-07T08:18:35.058Z,20.00
2019-06-07T08:21:21.357Z,20.10
2019-06-07T08:23:35.653Z,20.20
2019-06-07T08:26:05.361Z,20.40
2019-06-07T08:28:35.241Z,20.50
2019-06-07T08:31:07.187Z,20.60
2019-06-07T08:33:35.737Z,20.80
2019-06-07T08:36:19.267Z,20.90
2019-06-07T08:38:47.392Z,21.10
2019-06-07T08:41:11.985Z,21.20
2019-06-07T08:43:38.970Z,21.30
2019-06-07T08:46:08.367Z,21.40
2019-06-07T08:48:37.779Z,21.50
2019-06-07T08:51:08.466Z,21.60
2019-06-07T08:53:38.783Z,21.80
2019-06-07T08:56:11.067Z,21.90
2019-06-07T08:58:39.295Z,22.00
2019-06-07T09:01:09.244Z,22.10
2019-06-07T09:03:39.347Z,22.10
2019-06-07T09:06:53.790Z,22.20
2019-06-07T09:08:40.181Z,22.30
2019-06-07T09:11:11.363Z,22.40
2019-06-07T09:13:40.706Z,22.40
2019-06-07T09:16:10.113Z,22.50
2019-06-07T09:18:44.034Z,22.60
2019-06-07T09:21:10.593Z,22.70
2019-06-07T09:23:39.986Z,22.90
2019-06-07T09:26:17.658Z,23.00
2019-06-07T09:28:40.579Z,23.10
2019-06-07T09:31:12.756Z,23.20
2019-06-07T09:33:41.833Z,23.20
2019-06-07T09:36:13.290Z,23.30
2019-06-07T09:38:44.341Z,23.30
2019-06-07T09:41:13.831Z,23.40
2019-06-07T09:46:16.360Z,23.60
2019-06-07T09:49:14.035Z,23.60
2019-06-07T09:51:20.415Z,23.70
2019-06-07T09:53:49.031Z,23.80
2019-06-07T09:56:18.421Z,23.90
2019-06-07T09:58:51.907Z,24.00
2019-06-07T10:01:19.349Z,24.00
2019-06-07T10:03:48.743Z,24.10
2019-06-07T10:06:18.122Z,24.20
2019-06-07T10:11:18.636Z,24.40
2019-06-07T10:13:48.029Z,24.40
2019-06-07T10:16:17.431Z,24.40
2019-06-07T10:18:46.815Z,24.40
2019-06-07T10:21:16.196Z,24.50
2019-06-07T10:23:46.059Z,24.50
2019-06-07T10:26:15.444Z,24.50
2019-06-07T10:28:44.829Z,24.60
2019-06-07T10:31:14.209Z,24.70
2019-06-07T10:33:43.669Z,24.70
2019-06-07T10:36:13.050Z,24.80
2019-06-07T10:38:43.328Z,24.90
2019-06-07T10:41:12.695Z,24.90
2019-06-07T10:43:42.088Z,25.00
2019-06-07T10:46:12.116Z,25.10
2019-06-07T10:48:41.586Z,25.20
2019-06-07T10:51:12.571Z,25.30
2019-06-07T10:53:42.075Z,25.40
2019-06-07T10:56:11.471Z,25.50
2019-06-07T10:58:41.109Z,25.60
2019-06-07T11:01:12.884Z,25.70
2019-06-07T11:03:41.636Z,25.80
2019-06-07T11:06:12.161Z,25.80
2019-06-07T11:08:41.649Z,25.90
2019-06-07T11:11:12.241Z,25.90
2019-06-07T11:13:41.849Z,25.90
2019-06-07T11:16:11.363Z,25.90
2019-06-07T11:18:40.754Z,26.00
2019-06-07T11:21:10.245Z,26.00
2019-06-07T11:23:39.705Z,26.10
2019-06-07T11:26:10.307Z,26.10
2019-06-07T11:28:39.773Z,26.20
2019-06-07T11:31:10.808Z,26.30
2019-06-07T11:33:40.587Z,26.30
2019-06-07T11:36:10.683Z,26.40
2019-06-07T11:38:40.142Z,26.50
2019-06-07T11:41:09.870Z,26.50
2019-06-07T11:43:39.272Z,26.60
2019-06-07T11:46:08.890Z,26.70
2019-06-07T11:48:38.312Z,26.80
2019-06-07T11:51:08.588Z,26.90
2019-06-07T11:53:38.143Z,27.00
2019-06-07T11:56:07.856Z,27.10
2019-06-07T11:58:37.453Z,27.20
2019-06-07T12:01:07.583Z,27.30
2019-06-07T12:03:37.107Z,27.30
2019-06-07T12:06:08.231Z,27.40
2019-06-07T12:08:37.813Z,27.40
2019-06-07T12:11:08.066Z,27.50
2019-06-07T12:13:37.472Z,27.50
2019-06-07T12:16:07.272Z,27.50
2019-06-07T12:18:36.668Z,27.50
2019-06-07T12:21:06.117Z,27.50
2019-06-07T12:23:35.515Z,27.50
2019-06-07T12:26:05.064Z,27.40
2019-06-07T12:28:34.475Z,27.30
2019-06-07T12:31:03.875Z,27.30
2019-06-07T12:33:33.300Z,27.20
2019-06-07T12:36:02.694Z,27.20
2019-06-07T12:38:32.181Z,27.10
2019-06-07T12:41:01.595Z,27.00
2019-06-07T12:43:32.088Z,26.90
2019-06-07T12:46:01.471Z,26.90
2019-06-07T12:48:30.850Z,26.80
2019-06-07T12:51:00.230Z,26.80
2019-06-07T12:53:31.185Z,26.70
2019-06-07T12:56:00.593Z,26.70
2019-06-07T12:58:35.366Z,26.60
2019-06-07T13:01:01.103Z,26.50
2019-06-07T13:03:30.514Z,26.50
2019-06-07T13:06:19.531Z,26.50
2019-06-07T13:08:49.026Z,26.40
2019-06-07T13:11:24.274Z,26.40
2019-06-07T13:13:49.519Z,26.50
2019-06-07T13:16:19.972Z,26.50
2019-06-07T13:18:49.505Z,26.70
2019-06-07T13:21:20.306Z,26.80
2019-06-07T13:23:49.747Z,26.90
2019-06-07T13:26:20.511Z,27.00
2019-06-07T13:28:49.943Z,27.10
2019-06-07T13:31:19.328Z,27.10
2019-06-07T13:33:48.716Z,27.30
2019-06-07T13:36:18.204Z,27.30
2019-06-07T13:38:47.601Z,27.40
2019-06-07T13:41:30.317Z,27.50
2019-06-07T13:43:51.438Z,27.60
2019-06-07T13:46:19.272Z,27.70
2019-06-07T13:48:48.669Z,27.80
2019-06-07T13:51:18.989Z,28.00
2019-06-07T13:53:49.180Z,28.10
2019-06-07T13:56:19.808Z,28.10
2019-06-07T13:58:49.412Z,28.20
2019-06-07T14:01:18.797Z,28.30
2019-06-07T14:03:48.189Z,28.40
2019-06-07T14:06:18.818Z,28.50
2019-06-07T14:08:48.350Z,28.60
2019-06-07T14:11:19.402Z,28.70
2019-06-07T14:13:48.935Z,28.80
2019-06-07T14:16:18.328Z,28.80
2019-06-07T14:18:47.731Z,28.90
2019-06-07T14:21:17.548Z,28.90
2019-06-07T14:23:49.272Z,29.00
2019-06-07T14:26:18.027Z,29.00
2019-06-07T14:28:47.467Z,29.10
2019-06-07T14:31:16.858Z,29.20
2019-06-07T14:33:46.292Z,29.30
2019-06-07T14:36:15.708Z,29.30
2019-06-07T14:38:45.065Z,29.40
2019-06-07T14:41:14.450Z,29.40
2019-06-07T14:43:45.128Z,29.50
2019-06-07T14:46:14.569Z,29.50
2019-06-07T14:48:44.799Z,29.60
2019-06-07T14:51:14.187Z,29.60
2019-06-07T14:53:43.590Z,29.60
2019-06-07T14:56:12.974Z,29.60
2019-06-07T14:58:43.353Z,29.60
2019-06-07T15:01:13.069Z,29.50
2019-06-07T15:03:42.494Z,29.50
2019-06-07T15:06:11.920Z,29.40
2019-06-07T15:08:41.305Z,29.30
2019-06-07T15:11:10.696Z,29.30
2019-06-07T15:13:40.097Z,29.20
2019-06-07T15:16:09.480Z,29.10
2019-06-07T15:18:38.888Z,29.00
2019-06-07T15:21:08.296Z,28.90
2019-06-07T15:23:37.681Z,28.80
2019-06-07T15:26:07.077Z,28.80
2019-06-07T15:28:38.452Z,28.70
2019-06-07T15:31:07.882Z,28.70
2019-06-07T15:33:38.360Z,28.60
2019-06-07T15:36:07.846Z,28.60
2019-06-07T15:38:37.348Z,28.60
2019-06-07T15:41:06.704Z,28.60
2019-06-07T15:43:37.278Z,28.60
2019-06-07T15:46:06.970Z,28.60
2019-06-07T15:48:38.170Z,28.60
2019-06-07T15:51:07.851Z,28.60
2019-06-07T15:53:43.185Z,28.60
2019-06-07T15:56:10.002Z,28.60
2019-06-07T15:58:39.516Z,28.60
2019-06-07T16:01:08.869Z,28.60
2019-06-07T16:03:39.746Z,28.60
2019-06-07T16:06:09.361Z,28.60
2019-06-07T16:08:38.807Z,28.70
2019-06-07T16:11:08.137Z,28.70
2019-06-07T16:13:38.708Z,28.80
2019-06-07T16:16:08.408Z,28.90
2019-06-07T16:18:39.567Z,28.90
2019-06-07T16:21:09.173Z,29.00
2019-06-07T16:23:39.746Z,29.00
2019-06-07T16:26:09.354Z,29.00
2019-06-07T16:28:38.778Z,28.90
2019-06-07T16:31:08.156Z,28.80
2019-06-07T16:33:38.828Z,28.70
2019-06-07T16:36:08.339Z,28.60
2019-06-07T16:38:38.068Z,28.50
2019-06-07T16:41:07.477Z,28.30
2019-06-07T16:43:36.875Z,28.20
2019-06-07T16:46:06.537Z,28.10
2019-06-07T16:48:36.784Z,27.90
2019-06-07T16:51:06.312Z,27.80
2019-06-07T16:53:36.144Z,27.70
2019-06-07T16:56:06.487Z,27.50
2019-06-07T16:58:35.881Z,27.30
2019-06-07T17:01:05.353Z,27.10
2019-06-07T17:03:34.734Z,26.90
2019-06-07T17:06:04.140Z,26.60
2019-06-07T17:08:33.530Z,26.40
2019-06-07T17:11:02.921Z,26.20
2019-06-07T17:13:34.047Z,25.90
2019-06-07T17:16:03.585Z,25.80
2019-06-07T17:18:33.987Z,25.60
2019-06-07T17:21:04.126Z,25.40
2019-06-07T17:23:33.490Z,25.20
2019-06-07T17:26:02.875Z,25.00
2019-06-07T17:28:32.272Z,24.80
2019-06-07T17:31:01.682Z,24.60
2019-06-07T17:33:31.063Z,24.50
2019-06-07T17:36:00.482Z,24.30
2019-06-07T17:38:29.888Z,24.10
2019-06-07T17:41:02.242Z,23.90
2019-06-07T17:43:31.669Z,23.70
2019-06-07T17:46:01.088Z,23.50
2019-06-07T17:48:30.475Z,23.30
2019-06-07T17:50:59.902Z,23.10
2019-06-07T17:53:32.596Z,22.90
2019-06-07T17:56:03.191Z,22.80
2019-06-07T17:58:32.957Z,22.70
2019-06-07T18:01:02.346Z,22.60
2019-06-07T18:03:31.729Z,22.50
2019-06-07T18:06:05.061Z,22.30
2019-06-07T18:08:35.103Z,22.20
2019-06-07T18:11:04.510Z,22.10
2019-06-07T18:13:33.942Z,22.00
2019-06-07T18:16:03.340Z,22.00
2019-06-07T18:18:32.713Z,21.90
2019-06-07T18:21:02.112Z,21.80
2019-06-07T18:23:31.557Z,21.80
2019-06-07T18:26:01.046Z,21.70
2019-06-07T18:28:30.450Z,21.70
2019-06-07T18:31:01.397Z,21.60
2019-06-07T18:33:30.806Z,21.50
2019-06-07T18:36:00.294Z,21.50
2019-06-07T18:38:29.687Z,21.40
2019-06-07T18:40:59.624Z,21.40
2019-06-07T18:43:29.249Z,21.30
2019-06-07T18:45:58.628Z,21.30
2019-06-07T18:48:28.003Z,21.20
2019-06-07T18:50:59.073Z,21.10
2019-06-07T18:53:28.556Z,21.10
2019-06-07T18:55:58.153Z,21.00
2019-06-07T18:58:28.373Z,21.00
2019-06-07T19:00:57.743Z,20.90
2019-06-07T19:03:27.137Z,20.80
2019-06-07T19:05:56.605Z,20.80
2019-06-07T19:08:25.931Z,20.80
2019-06-07T19:10:55.306Z,20.70
2019-06-07T19:13:24.756Z,20.70
2019-06-07T19:15:55.358Z,20.60
2019-06-07T19:18:24.862Z,20.60
2019-06-07T19:20:54.377Z,20.50
2019-06-07T19:23:23.792Z,20.50
2019-06-07T19:25:54.295Z,20.40
2019-06-07T19:28:23.767Z,20.30
2019-06-07T19:30:53.175Z,20.20
2019-06-07T19:33:22.538Z,20.20
2019-06-07T19:35:53.352Z,20.10
2019-06-07T19:38:22.813Z,20.10
2019-06-07T19:40:52.218Z,20.10
2019-06-07T19:43:21.678Z,20.00
2019-06-07T19:45:52.085Z,20.00
2019-06-07T19:48:21.618Z,20.00
2019-06-07T19:50:51.028Z,19.90
2019-06-07T19:53:20.430Z,19.90
2019-06-07T19:55:49.815Z,19.90
2019-06-07T19:58:19.212Z,19.90
2019-06-07T20:00:49.403Z,19.80
2019-06-07T20:03:18.820Z,19.70
2019-06-07T20:05:48.223Z,19.70
2019-06-07T20:08:17.609Z,19.60
2019-06-07T20:10:46.988Z,19.60
2019-06-07T20:13:18.982Z,19.50
2019-06-07T20:15:47.936Z,19.40
2019-06-07T20:18:17.335Z,19.40
2019-06-07T20:20:47.536Z,19.30
2019-06-07T20:23:16.909Z,19.30
2019-06-07T20:25:46.327Z,19.30
2019-06-07T20:28:15.762Z,19.20
2019-06-07T20:30:45.140Z,19.20
2019-06-07T20:33:14.535Z,19.20
2019-06-07T20:35:43.953Z,19.20
2019-06-07T20:38:13.334Z,19.10
2019-06-07T20:40:42.744Z,19.10
2019-06-07T20:43:12.153Z,19.10
2019-06-07T20:45:41.555Z,19.10
2019-06-07T20:48:10.955Z,19.00
2019-06-07T20:50:40.401Z,19.00
2019-06-07T20:53:09.795Z,19.00
2019-06-07T20:55:39.182Z,19.00
2019-06-07T20:58:09.539Z,19.00
2019-06-07T21:00:38.944Z,19.00
2019-06-07T21:03:09.660Z,18.90
2019-06-07T21:05:39.185Z,18.90
2019-06-07T21:08:12.361Z,18.90
2019-06-07T21:10:39.655Z,18.90
2019-06-07T21:13:10.226Z,18.80
2019-06-07T21:15:48.431Z,18.80
2019-06-07T21:18:18.785Z,18.80
2019-06-07T21:20:41.982Z,18.70
2019-06-07T21:23:12.018Z,18.70
2019-06-07T21:25:41.517Z,18.60
2019-06-07T21:28:11.415Z,18.60
2019-06-07T21:30:40.932Z,18.50
2019-06-07T21:33:12.082Z,18.50
2019-06-07T21:35:42.499Z,18.50
2019-06-07T21:38:12.774Z,18.50
2019-06-07T21:40:42.243Z,18.50
2019-06-07T21:43:12.709Z,18.50
2019-06-07T21:45:42.832Z,18.50
2019-06-07T21:48:14.235Z,18.50
2019-06-07T21:50:43.764Z,18.40
2019-06-07T21:53:13.152Z,18.40
2019-06-07T21:55:42.529Z,18.40
2019-06-07T21:58:11.949Z,18.40
2019-06-07T22:00:57.338Z,18.40
2019-06-07T22:03:26.799Z,18.30
2019-06-07T22:05:56.179Z,18.30
2019-06-07T22:08:25.546Z,18.30
2019-06-07T22:10:55.082Z,18.30
2019-06-07T22:13:24.458Z,18.30
2019-06-07T22:15:53.859Z,18.30
2019-06-07T22:18:23.250Z,18.30
2019-06-07T22:20:52.631Z,18.30
2019-06-07T22:23:22.008Z,18.30
2019-06-07T22:25:51.415Z,18.30
2019-06-07T22:28:20.805Z,18.30
2019-06-07T22:30:50.178Z,18.30
2019-06-07T22:33:19.973Z,18.30
2019-06-07T22:35:49.358Z,18.30
2019-06-07T22:38:18.724Z,18.30
2019-06-07T22:40:48.133Z,18.30
2019-06-07T22:43:18.855Z,18.30
2019-06-07T22:45:48.680Z,18.30
2019-06-07T22:48:18.087Z,18.30
2019-06-07T22:50:47.489Z,18.30
2019-06-07T22:53:17.684Z,18.30
2019-06-07T22:55:48.833Z,18.30
2019-06-07T22:58:18.983Z,18.30
2019-06-07T23:00:48.575Z,18.30
2019-06-07T23:03:19.103Z,18.30
2019-06-07T23:05:48.658Z,18.30
2019-06-07T23:08:19.111Z,18.30
2019-06-07T23:10:48.636Z,18.30
2019-06-07T23:13:18.031Z,18.30
2019-06-07T23:15:47.423Z,18.30
2019-06-07T23:18:36.593Z,18.30
2019-06-07T23:21:05.968Z,18.30
2019-06-07T23:23:35.378Z,18.30
2019-06-07T23:26:12.361Z,18.30
2019-06-07T23:28:39.148Z,18.30
2019-06-07T23:31:08.543Z,18.30
2019-06-07T23:33:38.051Z,18.20
2019-06-07T23:36:07.436Z,18.20
2019-06-07T23:38:36.857Z,18.20
2019-06-07T23:41:06.253Z,18.20
2019-06-07T23:43:35.613Z,18.20
2019-06-07T23:46:04.985Z,18.20
2019-06-07T23:48:34.376Z,18.10
2019-06-07T23:51:03.761Z,18.10
2019-06-07T23:53:33.126Z,18.10
2019-06-07T23:56:02.586Z,18.10
2019-06-07T23:58:31.980Z,18.10
